sensor_id;sensor_type;location;lat;lon;timestamp;pressure;altitude;pressure_sealevel;temperature;humidity
50057;BME280;36875;49.468;11.200;2023-02-03T00:01:18;98792.59;;;23.36;32.51
50057;BME280;36875;49.468;11.200;2023-02-03T00:03:44;98794.22;;;23.37;32.63
50057;BME280;36875;49.468;11.200;2023-02-03T00:06:09;98784.81;;;23.29;32.54
50057;BME280;36875;49.468;11.200;2023-02-03T00:08:35;98806.28;;;23.27;32.59
50057;BME280;36875;49.468;11.200;2023-02-03T00:11:02;98801.09;;;23.25;32.74
50057;BME280;36875;49.468;11.200;2023-02-03T00:13:28;98804.25;;;23.19;32.63
50057;BME280;36875;49.468;11.200;2023-02-03T00:15:53;98796.13;;;23.14;32.59
50057;BME280;36875;49.468;11.200;2023-02-03T00:18:20;98798.69;;;23.10;32.78
50057;BME280;36875;49.468;11.200;2023-02-03T00:20:46;98796.91;;;23.05;32.70
50057;BME280;36875;49.468;11.200;2023-02-03T00:23:12;98801.66;;;23.00;32.67
50057;BME280;36875;49.468;11.200;2023-02-03T00:25:38;98786.22;;;22.90;32.67
50057;BME280;36875;49.468;11.200;2023-02-03T00:28:04;98801.06;;;22.89;33.04
50057;BME280;36875;49.468;11.200;2023-02-03T00:30:30;98800.28;;;22.88;32.84
50057;BME280;36875;49.468;11.200;2023-02-03T00:32:56;98798.84;;;22.77;33.18
50057;BME280;36875;49.468;11.200;2023-02-03T00:35:22;98778.03;;;22.62;33.20
50057;BME280;36875;49.468;11.200;2023-02-03T00:37:51;98758.44;;;22.55;33.17
50057;BME280;36875;49.468;11.200;2023-02-03T00:40:17;98788.31;;;22.70;33.11
50057;BME280;36875;49.468;11.200;2023-02-03T00:42:43;98790.34;;;22.65;33.11
50057;BME280;36875;49.468;11.200;2023-02-03T00:45:09;98794.31;;;22.59;33.28
50057;BME280;36875;49.468;11.200;2023-02-03T00:47:34;98793.00;;;22.56;33.09
50057;BME280;36875;49.468;11.200;2023-02-03T00:50:00;98749.53;;;22.22;33.23
50057;BME280;36875;49.468;11.200;2023-02-03T00:52:27;98784.69;;;22.47;33.48
50057;BME280;36875;49.468;11.200;2023-02-03T00:54:52;98793.41;;;22.49;33.40
50057;BME280;36875;49.468;11.200;2023-02-03T00:57:17;98757.69;;;22.27;33.30
50057;BME280;36875;49.468;11.200;2023-02-03T00:59:45;98778.78;;;22.40;33.33
50057;BME280;36875;49.468;11.200;2023-02-03T01:02:10;98781.03;;;22.38;33.56
50057;BME280;36875;49.468;11.200;2023-02-03T01:04:36;98783.88;;;22.33;33.47
50057;BME280;36875;49.468;11.200;2023-02-03T01:07:01;98787.25;;;22.30;33.43
50057;BME280;36875;49.468;11.200;2023-02-03T01:09:32;98784.66;;;22.20;33.76
50057;BME280;36875;49.468;11.200;2023-02-03T01:11:57;98793.09;;;22.23;33.74
50057;BME280;36875;49.468;11.200;2023-02-03T01:14:23;98791.28;;;22.19;33.77
50057;BME280;36875;49.468;11.200;2023-02-03T01:16:48;98785.28;;;22.17;33.72
50057;BME280;36875;49.468;11.200;2023-02-03T01:19:14;98782.44;;;22.08;33.84
50057;BME280;36875;49.468;11.200;2023-02-03T01:21:41;98787.09;;;22.07;33.76
50057;BME280;36875;49.468;11.200;2023-02-03T01:24:06;98787.41;;;22.06;33.69
50057;BME280;36875;49.468;11.200;2023-02-03T01:26:35;98789.94;;;22.02;33.66
50057;BME280;36875;49.468;11.200;2023-02-03T01:29:01;98786.16;;;21.98;33.96
50057;BME280;36875;49.468;11.200;2023-02-03T01:31:28;98781.91;;;21.92;33.40
50057;BME280;36875;49.468;11.200;2023-02-03T01:33:54;98786.28;;;21.93;33.78
50057;BME280;36875;49.468;11.200;2023-02-03T01:36:22;98786.88;;;21.90;34.00
50057;BME280;36875;49.468;11.200;2023-02-03T01:38:48;98778.16;;;21.88;33.93
50057;BME280;36875;49.468;11.200;2023-02-03T01:41:16;98760.38;;;21.71;34.31
50057;BME280;36875;49.468;11.200;2023-02-03T01:43:45;98755.78;;;21.67;33.95
50057;BME280;36875;49.468;11.200;2023-02-03T01:46:20;98779.97;;;21.79;33.92
50057;BME280;36875;49.468;11.200;2023-02-03T01:48:47;98766.06;;;21.75;34.16
50057;BME280;36875;49.468;11.200;2023-02-03T01:51:13;98758.22;;;21.68;33.87
50057;BME280;36875;49.468;11.200;2023-02-03T01:53:39;98765.34;;;21.69;34.17
50057;BME280;36875;49.468;11.200;2023-02-03T01:56:05;98747.25;;;21.54;33.87
50057;BME280;36875;49.468;11.200;2023-02-03T01:58:34;98756.69;;;21.62;34.19
50057;BME280;36875;49.468;11.200;2023-02-03T02:01:03;98752.31;;;21.61;33.96
50057;BME280;36875;49.468;11.200;2023-02-03T02:03:31;98731.72;;;21.50;33.77
50057;BME280;36875;49.468;11.200;2023-02-03T02:06:03;98720.53;;;21.46;33.95
50057;BME280;36875;49.468;11.200;2023-02-03T02:08:28;98734.66;;;21.53;34.12
50057;BME280;36875;49.468;11.200;2023-02-03T02:10:55;98730.63;;;21.51;34.30
50057;BME280;36875;49.468;11.200;2023-02-03T02:13:21;98721.06;;;21.48;34.08
50057;BME280;36875;49.468;11.200;2023-02-03T02:15:53;98714.25;;;21.46;34.43
50057;BME280;36875;49.468;11.200;2023-02-03T02:18:40;98710.47;;;21.42;34.32
50057;BME280;36875;49.468;11.200;2023-02-03T02:21:23;98719.28;;;21.38;34.12
50057;BME280;36875;49.468;11.200;2023-02-03T02:24:14;98712.78;;;21.34;34.13
50057;BME280;36875;49.468;11.200;2023-02-03T02:26:56;98729.53;;;21.33;34.49
50057;BME280;36875;49.468;11.200;2023-02-03T02:29:48;98683.50;;;21.02;34.24
50057;BME280;36875;49.468;11.200;2023-02-03T02:32:39;98727.66;;;21.28;34.36
50057;BME280;36875;49.468;11.200;2023-02-03T02:35:16;98723.63;;;21.26;34.38
50057;BME280;36875;49.468;11.200;2023-02-03T02:37:47;98731.63;;;21.22;34.38
50057;BME280;36875;49.468;11.200;2023-02-03T02:40:20;98738.50;;;21.20;34.42
50057;BME280;36875;49.468;11.200;2023-02-03T02:42:57;98712.03;;;21.15;34.34
50057;BME280;36875;49.468;11.200;2023-02-03T02:45:29;98716.47;;;21.11;34.45
50057;BME280;36875;49.468;11.200;2023-02-03T02:47:58;98720.00;;;21.11;34.71
50057;BME280;36875;49.468;11.200;2023-02-03T02:50:27;98730.44;;;21.09;34.33
50057;BME280;36875;49.468;11.200;2023-02-03T02:52:57;98727.50;;;21.06;34.78
50057;BME280;36875;49.468;11.200;2023-02-03T02:55:26;98696.09;;;20.84;34.25
50057;BME280;36875;49.468;11.200;2023-02-03T02:57:56;98712.78;;;21.02;34.51
50057;BME280;36875;49.468;11.200;2023-02-03T03:00:23;98713.16;;;20.95;34.34
50057;BME280;36875;49.468;11.200;2023-02-03T03:02:49;98726.56;;;20.96;34.41
50057;BME280;36875;49.468;11.200;2023-02-03T03:05:16;98724.09;;;20.95;34.83
50057;BME280;36875;49.468;11.200;2023-02-03T03:07:44;98731.50;;;20.94;34.84
50057;BME280;36875;49.468;11.200;2023-02-03T03:10:15;98729.34;;;20.91;34.85
50057;BME280;36875;49.468;11.200;2023-02-03T03:12:47;98731.59;;;20.89;34.86
50057;BME280;36875;49.468;11.200;2023-02-03T03:15:17;98733.81;;;20.87;34.74
50057;BME280;36875;49.468;11.200;2023-02-03T03:17:50;98730.84;;;20.84;34.75
50057;BME280;36875;49.468;11.200;2023-02-03T03:20:22;98738.53;;;20.82;34.82
50057;BME280;36875;49.468;11.200;2023-02-03T03:22:52;98744.31;;;20.80;34.86
50057;BME280;36875;49.468;11.200;2023-02-03T03:25:24;98724.66;;;20.78;34.84
50057;BME280;36875;49.468;11.200;2023-02-03T03:27:55;98706.03;;;20.61;34.50
50057;BME280;36875;49.468;11.200;2023-02-03T03:30:24;98734.56;;;20.74;34.62
50057;BME280;36875;49.468;11.200;2023-02-03T03:32:51;98732.13;;;20.72;34.92
50057;BME280;36875;49.468;11.200;2023-02-03T03:35:17;98715.47;;;20.69;34.61
50057;BME280;36875;49.468;11.200;2023-02-03T03:37:50;98713.97;;;20.57;34.78
50057;BME280;36875;49.468;11.200;2023-02-03T03:40:22;98742.59;;;20.65;34.72
50057;BME280;36875;49.468;11.200;2023-02-03T03:42:51;98740.47;;;20.62;35.18
50057;BME280;36875;49.468;11.200;2023-02-03T03:45:21;98744.56;;;20.59;34.65
50057;BME280;36875;49.468;11.200;2023-02-03T03:47:50;98749.25;;;20.59;34.92
50057;BME280;36875;49.468;11.200;2023-02-03T03:50:21;98754.47;;;20.55;35.08
50057;BME280;36875;49.468;11.200;2023-02-03T03:52:50;98757.56;;;20.49;35.18
50057;BME280;36875;49.468;11.200;2023-02-03T03:55:18;98759.72;;;20.52;34.96
50057;BME280;36875;49.468;11.200;2023-02-03T03:57:51;98754.53;;;20.50;35.10
50057;BME280;36875;49.468;11.200;2023-02-03T04:00:20;98753.22;;;20.48;35.01
50057;BME280;36875;49.468;11.200;2023-02-03T04:02:50;98750.78;;;20.46;35.09
50057;BME280;36875;49.468;11.200;2023-02-03T04:05:17;98744.84;;;20.39;35.34
50057;BME280;36875;49.468;11.200;2023-02-03T04:07:45;98737.16;;;20.41;35.00
50057;BME280;36875;49.468;11.200;2023-02-03T04:10:22;98731.19;;;20.39;35.20
50057;BME280;36875;49.468;11.200;2023-02-03T04:12:50;98715.50;;;20.26;35.41
50057;BME280;36875;49.468;11.200;2023-02-03T04:15:15;98743.81;;;20.35;35.28
50057;BME280;36875;49.468;11.200;2023-02-03T04:17:41;98740.56;;;20.33;35.17
50057;BME280;36875;49.468;11.200;2023-02-03T04:20:07;98750.66;;;20.32;35.03
50057;BME280;36875;49.468;11.200;2023-02-03T04:22:33;98691.69;;;20.07;35.42
50057;BME280;36875;49.468;11.200;2023-02-03T04:25:01;98717.94;;;20.27;35.22
50057;BME280;36875;49.468;11.200;2023-02-03T04:27:28;98710.91;;;20.21;35.32
50057;BME280;36875;49.468;11.200;2023-02-03T04:29:53;98713.94;;;20.19;35.18
50057;BME280;36875;49.468;11.200;2023-02-03T04:32:19;98718.00;;;20.22;35.53
50057;BME280;36875;49.468;11.200;2023-02-03T04:34:44;98713.94;;;20.19;35.01
50057;BME280;36875;49.468;11.200;2023-02-03T04:37:10;98709.88;;;20.17;35.45
50057;BME280;36875;49.468;11.200;2023-02-03T04:39:35;98709.66;;;20.13;35.15
50057;BME280;36875;49.468;11.200;2023-02-03T04:42:01;98686.81;;;20.04;35.01
50057;BME280;36875;49.468;11.200;2023-02-03T04:44:28;98697.06;;;20.12;35.50
50057;BME280;36875;49.468;11.200;2023-02-03T04:46:53;98696.28;;;20.12;35.01
50057;BME280;36875;49.468;11.200;2023-02-03T04:49:19;98690.56;;;20.08;35.46
50057;BME280;36875;49.468;11.200;2023-02-03T04:51:44;98695.25;;;20.08;35.23
50057;BME280;36875;49.468;11.200;2023-02-03T04:54:12;98683.50;;;20.07;35.58
50057;BME280;36875;49.468;11.200;2023-02-03T04:56:38;98672.69;;;19.97;35.21
50057;BME280;36875;49.468;11.200;2023-02-03T04:59:03;98687.09;;;20.02;35.43
50057;BME280;36875;49.468;11.200;2023-02-03T05:01:30;98694.25;;;19.98;35.50
50057;BME280;36875;49.468;11.200;2023-02-03T05:03:56;98697.78;;;19.99;35.28
50057;BME280;36875;49.468;11.200;2023-02-03T05:06:22;98693.75;;;19.96;35.48
50057;BME280;36875;49.468;11.200;2023-02-03T05:08:51;98708.50;;;19.95;35.69
50057;BME280;36875;49.468;11.200;2023-02-03T05:11:17;98708.78;;;19.94;35.46
50057;BME280;36875;49.468;11.200;2023-02-03T05:13:42;98691.41;;;19.84;35.30
50057;BME280;36875;49.468;11.200;2023-02-03T05:16:07;98668.06;;;19.73;35.62
50057;BME280;36875;49.468;11.200;2023-02-03T05:18:34;98696.28;;;19.88;35.19
50057;BME280;36875;49.468;11.200;2023-02-03T05:21:00;98699.31;;;19.86;35.62
50057;BME280;36875;49.468;11.200;2023-02-03T05:23:25;98708.91;;;19.83;35.49
50057;BME280;36875;49.468;11.200;2023-02-03T05:25:51;98713.84;;;19.81;35.80
50057;BME280;36875;49.468;11.200;2023-02-03T05:28:16;98725.06;;;19.80;35.55
50057;BME280;36875;49.468;11.200;2023-02-03T05:30:42;98729.19;;;19.77;35.80
50057;BME280;36875;49.468;11.200;2023-02-03T05:33:08;98730.28;;;19.76;35.37
50057;BME280;36875;49.468;11.200;2023-02-03T05:35:35;98695.00;;;19.56;35.34
50057;BME280;36875;49.468;11.200;2023-02-03T05:38:01;98713.38;;;19.74;35.50
50057;BME280;36875;49.468;11.200;2023-02-03T05:40:26;98719.38;;;19.71;35.73
50057;BME280;36875;49.468;11.200;2023-02-03T05:43:11;98691.19;;;19.52;35.88
50057;BME280;36875;49.468;11.200;2023-02-03T05:45:36;98695.88;;;19.46;35.62
50057;BME280;36875;49.468;11.200;2023-02-03T05:48:02;98716.72;;;19.66;35.79
50057;BME280;36875;49.468;11.200;2023-02-03T05:50:28;98696.13;;;19.50;35.55
50057;BME280;36875;49.468;11.200;2023-02-03T05:52:58;98711.47;;;19.45;35.80
50057;BME280;36875;49.468;11.200;2023-02-03T05:55:24;98724.94;;;19.61;35.88
50057;BME280;36875;49.468;11.200;2023-02-03T05:57:50;98719.47;;;19.61;35.58
50057;BME280;36875;49.468;11.200;2023-02-03T06:00:16;98708.91;;;19.54;35.91
50057;BME280;36875;49.468;11.200;2023-02-03T06:02:41;98681.53;;;19.35;35.89
50057;BME280;36875;49.468;11.200;2023-02-03T06:05:07;98709.72;;;19.55;35.58
50057;BME280;36875;49.468;11.200;2023-02-03T06:07:33;98688.44;;;19.52;36.02
50057;BME280;36875;49.468;11.200;2023-02-03T06:10:00;98682.50;;;19.44;35.71
50057;BME280;36875;49.468;11.200;2023-02-03T06:12:25;98674.03;;;19.46;36.22
50057;BME280;36875;49.468;11.200;2023-02-03T06:14:51;98696.47;;;19.43;36.14
50057;BME280;36875;49.468;11.200;2023-02-03T06:17:16;98676.00;;;19.40;36.40
50057;BME280;36875;49.468;11.200;2023-02-03T06:19:42;98606.47;;;19.09;36.86
50057;BME280;36875;49.468;11.200;2023-02-03T06:22:07;98659.13;;;19.38;36.48
50057;BME280;36875;49.468;11.200;2023-02-03T06:24:33;98655.81;;;19.41;36.45
50057;BME280;36875;49.468;11.200;2023-02-03T06:26:59;98655.81;;;19.41;36.50
50057;BME280;36875;49.468;11.200;2023-02-03T06:29:25;98649.56;;;19.41;36.59
50057;BME280;36875;49.468;11.200;2023-02-03T06:31:50;98640.59;;;19.35;36.75
50057;BME280;36875;49.468;11.200;2023-02-03T06:34:16;98658.03;;;19.39;36.37
50057;BME280;36875;49.468;11.200;2023-02-03T06:36:41;98651.50;;;19.35;36.87
50057;BME280;36875;49.468;11.200;2023-02-03T06:39:07;98597.78;;;19.06;36.89
50057;BME280;36875;49.468;11.200;2023-02-03T06:41:32;98647.41;;;19.38;36.92
50057;BME280;36875;49.468;11.200;2023-02-03T06:43:59;98654.78;;;19.37;37.05
50057;BME280;36875;49.468;11.200;2023-02-03T06:46:25;98652.56;;;19.39;36.90
50057;BME280;36875;49.468;11.200;2023-02-03T06:48:54;98664.56;;;19.38;36.86
50057;BME280;36875;49.468;11.200;2023-02-03T06:51:19;98661.84;;;19.38;36.78
50057;BME280;36875;49.468;11.200;2023-02-03T06:53:45;98667.88;;;19.35;37.11
50057;BME280;36875;49.468;11.200;2023-02-03T06:56:10;98678.28;;;19.33;36.94
50057;BME280;36875;49.468;11.200;2023-02-03T06:58:36;98671.47;;;19.31;37.33
50057;BME280;36875;49.468;11.200;2023-02-03T07:01:03;98669.84;;;19.30;37.18
50057;BME280;36875;49.468;11.200;2023-02-03T07:03:28;98655.09;;;19.31;37.42
50057;BME280;36875;49.468;11.200;2023-02-03T07:05:57;98651.91;;;19.23;37.38
50057;BME280;36875;49.468;11.200;2023-02-03T07:08:22;98666.31;;;19.29;37.69
50057;BME280;36875;49.468;11.200;2023-02-03T07:10:52;98664.75;;;19.23;37.40
50057;BME280;36875;49.468;11.200;2023-02-03T07:13:17;98651.13;;;19.18;37.07
50057;BME280;36875;49.468;11.200;2023-02-03T07:15:44;98646.72;;;19.22;37.24
50057;BME280;36875;49.468;11.200;2023-02-03T07:18:10;98643.47;;;19.20;37.50
50057;BME280;36875;49.468;11.200;2023-02-03T07:20:36;98659.84;;;19.20;37.66
50057;BME280;36875;49.468;11.200;2023-02-03T07:23:01;98662.84;;;19.18;37.86
50057;BME280;36875;49.468;11.200;2023-02-03T07:25:27;98666.47;;;19.14;37.78
50057;BME280;36875;49.468;11.200;2023-02-03T07:27:53;98658.25;;;19.19;37.45
50057;BME280;36875;49.468;11.200;2023-02-03T07:30:19;98657.94;;;19.20;37.37
50057;BME280;36875;49.468;11.200;2023-02-03T07:32:48;98643.47;;;19.20;37.11
50057;BME280;36875;49.468;11.200;2023-02-03T07:35:15;98666.34;;;19.24;37.12
50057;BME280;36875;49.468;11.200;2023-02-03T07:37:41;98675.66;;;19.23;37.45
50057;BME280;36875;49.468;11.200;2023-02-03T07:40:08;98677.66;;;19.41;36.86
50057;BME280;36875;49.468;11.200;2023-02-03T07:42:34;98667.16;;;19.54;37.04
50057;BME280;36875;49.468;11.200;2023-02-03T07:44:59;98680.13;;;19.67;37.08
50057;BME280;36875;49.468;11.200;2023-02-03T07:47:25;98672.72;;;19.73;36.99
50057;BME280;36875;49.468;11.200;2023-02-03T07:49:50;98680.94;;;19.92;36.35
50057;BME280;36875;49.468;11.200;2023-02-03T07:52:17;98683.28;;;20.03;36.53
50057;BME280;36875;49.468;11.200;2023-02-03T07:54:43;98677.88;;;20.17;36.11
50057;BME280;36875;49.468;11.200;2023-02-03T07:57:08;98697.41;;;20.30;35.78
50057;BME280;36875;49.468;11.200;2023-02-03T07:59:34;98698.31;;;20.44;35.77
50057;BME280;36875;49.468;11.200;2023-02-03T08:01:59;98689.84;;;20.65;35.40
50057;BME280;36875;49.468;11.200;2023-02-03T08:04:25;98662.03;;;20.57;35.23
50057;BME280;36875;49.468;11.200;2023-02-03T08:06:50;98687.38;;;20.82;35.48
50057;BME280;36875;49.468;11.200;2023-02-03T08:09:17;98694.13;;;20.90;35.39
50057;BME280;36875;49.468;11.200;2023-02-03T08:11:43;98691.97;;;21.20;35.11
50057;BME280;36875;49.468;11.200;2023-02-03T08:14:08;98684.78;;;21.24;34.77
50057;BME280;36875;49.468;11.200;2023-02-03T08:16:34;98676.56;;;21.24;34.72
50057;BME280;36875;49.468;11.200;2023-02-03T08:19:00;98691.69;;;21.35;34.68
50057;BME280;36875;49.468;11.200;2023-02-03T08:21:26;98687.53;;;21.37;34.65
50057;BME280;36875;49.468;11.200;2023-02-03T08:23:51;98689.13;;;21.58;34.63
50057;BME280;36875;49.468;11.200;2023-02-03T08:26:18;98687.00;;;21.68;34.41
50057;BME280;36875;49.468;11.200;2023-02-03T08:28:47;98680.84;;;21.77;34.39
50057;BME280;36875;49.468;11.200;2023-02-03T08:31:13;98680.50;;;21.92;34.03
50057;BME280;36875;49.468;11.200;2023-02-03T08:33:38;98680.09;;;21.85;34.11
50057;BME280;36875;49.468;11.200;2023-02-03T08:36:04;98692.47;;;21.96;34.14
50057;BME280;36875;49.468;11.200;2023-02-03T08:38:30;98688.41;;;22.07;33.92
50057;BME280;36875;49.468;11.200;2023-02-03T08:40:56;98693.81;;;21.99;34.21
50057;BME280;36875;49.468;11.200;2023-02-03T08:43:23;98683.84;;;22.30;33.73
50057;BME280;36875;49.468;11.200;2023-02-03T08:45:48;98680.47;;;22.20;33.66
50057;BME280;36875;49.468;11.200;2023-02-03T08:48:13;98675.44;;;22.27;33.89
50057;BME280;36875;49.468;11.200;2023-02-03T08:50:40;98663.75;;;22.35;33.87
50057;BME280;36875;49.468;11.200;2023-02-03T08:53:06;98675.22;;;22.37;33.57
50057;BME280;36875;49.468;11.200;2023-02-03T08:55:31;98670.22;;;22.39;33.61
50057;BME280;36875;49.468;11.200;2023-02-03T08:57:57;98677.09;;;22.50;33.62
50057;BME280;36875;49.468;11.200;2023-02-03T09:00:24;98675.31;;;22.68;33.42
50057;BME280;36875;49.468;11.200;2023-02-03T09:02:50;98676.50;;;22.76;33.26
50057;BME280;36875;49.468;11.200;2023-02-03T09:05:16;98672.78;;;22.72;33.32
50057;BME280;36875;49.468;11.200;2023-02-03T09:07:43;98669.66;;;22.87;32.99
50057;BME280;36875;49.468;11.200;2023-02-03T09:10:09;98668.38;;;22.94;32.77
50057;BME280;36875;49.468;11.200;2023-02-03T09:12:34;98668.34;;;22.85;32.99
50057;BME280;36875;49.468;11.200;2023-02-03T09:15:00;98664.34;;;22.91;32.93
50057;BME280;36875;49.468;11.200;2023-02-03T09:17:27;98659.16;;;23.12;32.44
50057;BME280;36875;49.468;11.200;2023-02-03T09:19:52;98654.88;;;23.20;32.29
50057;BME280;36875;49.468;11.200;2023-02-03T09:22:18;98651.66;;;23.26;32.18
50057;BME280;36875;49.468;11.200;2023-02-03T09:24:43;98647.13;;;23.22;32.34
50057;BME280;36875;49.468;11.200;2023-02-03T09:27:09;98644.81;;;23.15;32.52
50057;BME280;36875;49.468;11.200;2023-02-03T09:29:34;98655.97;;;23.19;32.29
50057;BME280;36875;49.468;11.200;2023-02-03T09:32:00;98649.88;;;23.22;32.33
50057;BME280;36875;49.468;11.200;2023-02-03T09:34:32;98643.56;;;23.21;32.70
50057;BME280;36875;49.468;11.200;2023-02-03T09:36:57;98644.44;;;23.31;32.54
50057;BME280;36875;49.468;11.200;2023-02-03T09:39:23;98626.00;;;23.31;32.37
50057;BME280;36875;49.468;11.200;2023-02-03T09:44:55;98622.47;;;23.31;32.92
50057;BME280;36875;49.468;11.200;2023-02-03T09:47:26;98627.44;;;23.28;33.02
50057;BME280;36875;49.468;11.200;2023-02-03T09:49:55;98628.84;;;23.17;33.15
50057;BME280;36875;49.468;11.200;2023-02-03T09:52:24;98622.25;;;23.18;33.30
50057;BME280;36875;49.468;11.200;2023-02-03T09:54:55;98637.53;;;23.11;33.35
50057;BME280;36875;49.468;11.200;2023-02-03T09:57:24;98611.44;;;22.99;33.60
50057;BME280;36875;49.468;11.200;2023-02-03T09:59:51;98616.81;;;23.04;33.47
50057;BME280;36875;49.468;11.200;2023-02-03T10:02:27;98628.09;;;23.25;33.46
50057;BME280;36875;49.468;11.200;2023-02-03T10:05:00;98621.59;;;23.21;33.28
50057;BME280;36875;49.468;11.200;2023-02-03T10:07:35;98610.78;;;23.25;33.47
50057;BME280;36875;49.468;11.200;2023-02-03T10:10:08;98614.81;;;23.19;33.58
50057;BME280;36875;49.468;11.200;2023-02-03T10:12:57;98619.63;;;23.13;33.71
50057;BME280;36875;49.468;11.200;2023-02-03T10:15:38;98621.16;;;23.28;33.34
50057;BME280;36875;49.468;11.200;2023-02-03T10:18:09;98614.22;;;23.31;33.25
50057;BME280;36875;49.468;11.200;2023-02-03T10:20:41;98608.19;;;23.20;33.39
50057;BME280;36875;49.468;11.200;2023-02-03T10:23:11;98607.53;;;23.23;33.28
50057;BME280;36875;49.468;11.200;2023-02-03T10:25:40;98607.84;;;23.21;33.28
50057;BME280;36875;49.468;11.200;2023-02-03T10:28:12;98604.50;;;23.24;33.25
50057;BME280;36875;49.468;11.200;2023-02-03T10:30:40;98605.75;;;23.18;33.33
50057;BME280;36875;49.468;11.200;2023-02-03T10:33:11;98599.00;;;23.24;33.13
50057;BME280;36875;49.468;11.200;2023-02-03T10:35:44;98610.59;;;23.21;33.04
50057;BME280;36875;49.468;11.200;2023-02-03T10:38:16;98601.88;;;23.19;33.20
50057;BME280;36875;49.468;11.200;2023-02-03T10:40:46;98602.53;;;23.16;33.22
50057;BME280;36875;49.468;11.200;2023-02-03T10:43:12;98572.84;;;23.27;33.03
50057;BME280;36875;49.468;11.200;2023-02-03T10:45:57;98584.97;;;23.26;33.08
50057;BME280;36875;49.468;11.200;2023-02-03T10:48:23;98580.13;;;23.32;32.93
50057;BME280;36875;49.468;11.200;2023-02-03T10:50:51;98581.47;;;23.43;32.72
50057;BME280;36875;49.468;11.200;2023-02-03T10:53:20;98588.44;;;23.49;32.66
50057;BME280;36875;49.468;11.200;2023-02-03T10:55:49;98585.09;;;23.70;32.38
50057;BME280;36875;49.468;11.200;2023-02-03T10:58:24;98578.94;;;23.73;32.24
50057;BME280;36875;49.468;11.200;2023-02-03T11:00:54;98580.25;;;23.66;32.41
50057;BME280;36875;49.468;11.200;2023-02-03T11:03:24;98558.66;;;23.82;32.29
50057;BME280;36875;49.468;11.200;2023-02-03T11:06:05;98574.13;;;23.78;32.43
50057;BME280;36875;49.468;11.200;2023-02-03T11:08:32;98554.06;;;23.78;32.22
50057;BME280;36875;49.468;11.200;2023-02-03T11:11:02;98540.03;;;23.79;32.32
50057;BME280;36875;49.468;11.200;2023-02-03T11:13:28;98569.63;;;23.91;32.33
50057;BME280;36875;49.468;11.200;2023-02-03T11:15:56;98556.56;;;24.05;32.18
50057;BME280;36875;49.468;11.200;2023-02-03T11:18:35;98527.94;;;24.07;31.94
50057;BME280;36875;49.468;11.200;2023-02-03T11:21:12;98538.13;;;24.23;31.80
50057;BME280;36875;49.468;11.200;2023-02-03T11:24:00;98487.34;;;24.03;31.69
50057;BME280;36875;49.468;11.200;2023-02-03T11:26:29;98523.88;;;24.48;31.66
50057;BME280;36875;49.468;11.200;2023-02-03T11:28:58;98524.69;;;24.57;31.65
50057;BME280;36875;49.468;11.200;2023-02-03T11:31:26;98513.81;;;24.69;31.16
50057;BME280;36875;49.468;11.200;2023-02-03T11:33:55;98495.25;;;24.40;31.74
50057;BME280;36875;49.468;11.200;2023-02-03T11:36:27;98509.41;;;24.86;31.14
50057;BME280;36875;49.468;11.200;2023-02-03T11:39:08;98504.81;;;24.98;30.80
50057;BME280;36875;49.468;11.200;2023-02-03T11:41:36;98495.16;;;24.84;31.32
50057;BME280;36875;49.468;11.200;2023-02-03T11:44:09;98500.03;;;25.16;30.89
50057;BME280;36875;49.468;11.200;2023-02-03T11:46:36;98477.44;;;25.02;30.59
50057;BME280;36875;49.468;11.200;2023-02-03T11:49:10;98490.25;;;25.36;30.59
50057;BME280;36875;49.468;11.200;2023-02-03T11:51:44;98486.66;;;25.36;30.26
50057;BME280;36875;49.468;11.200;2023-02-03T11:54:26;98500.38;;;25.24;30.42
50057;BME280;36875;49.468;11.200;2023-02-03T11:57:12;98509.84;;;24.96;30.84
50057;BME280;36875;49.468;11.200;2023-02-03T11:59:55;98484.50;;;24.73;31.34
50057;BME280;36875;49.468;11.200;2023-02-03T12:02:46;98496.66;;;24.72;31.23
50057;BME280;36875;49.468;11.200;2023-02-03T12:05:30;98477.88;;;24.48;31.50
50057;BME280;36875;49.468;11.200;2023-02-03T12:08:07;98469.97;;;24.55;31.43
50057;BME280;36875;49.468;11.200;2023-02-03T12:10:44;98492.97;;;24.59;31.46
50057;BME280;36875;49.468;11.200;2023-02-03T12:13:29;98501.41;;;24.54;31.54
50057;BME280;36875;49.468;11.200;2023-02-03T12:16:08;98492.31;;;24.45;31.52
50057;BME280;36875;49.468;11.200;2023-02-03T12:18:49;98491.84;;;24.34;32.10
50057;BME280;36875;49.468;11.200;2023-02-03T12:21:34;98484.72;;;24.33;31.77
50057;BME280;36875;49.468;11.200;2023-02-03T12:24:14;98472.44;;;24.39;31.72
50057;BME280;36875;49.468;11.200;2023-02-03T12:26:49;98467.91;;;24.35;31.65
50057;BME280;36875;49.468;11.200;2023-02-03T12:29:20;98469.53;;;24.36;31.92
50057;BME280;36875;49.468;11.200;2023-02-03T12:31:58;98463.03;;;24.40;32.02
50057;BME280;36875;49.468;11.200;2023-02-03T12:34:29;98477.94;;;24.39;31.70
50057;BME280;36875;49.468;11.200;2023-02-03T12:37:01;98451.53;;;24.56;31.47
50057;BME280;36875;49.468;11.200;2023-02-03T12:39:33;98439.72;;;24.55;31.50
50057;BME280;36875;49.468;11.200;2023-02-03T12:42:03;98434.66;;;24.66;31.45
50057;BME280;36875;49.468;11.200;2023-02-03T12:44:34;98437.09;;;24.59;31.85
50057;BME280;36875;49.468;11.200;2023-02-03T12:47:13;98448.38;;;24.75;31.57
50057;BME280;36875;49.468;11.200;2023-02-03T12:49:46;98430.75;;;24.76;31.80
50057;BME280;36875;49.468;11.200;2023-02-03T12:52:20;98417.47;;;24.78;31.51
50057;BME280;36875;49.468;11.200;2023-02-03T12:54:55;98430.03;;;24.88;31.54
50057;BME280;36875;49.468;11.200;2023-02-03T12:57:28;98427.88;;;25.02;31.06
50057;BME280;36875;49.468;11.200;2023-02-03T13:00:04;98400.88;;;24.87;30.99
50057;BME280;36875;49.468;11.200;2023-02-03T13:02:43;98434.06;;;24.90;31.49